Time;durP1;ratioP1;P1;durP2;ratioP2;P2;SDS_P1;SDS_P2;PMS_P1;PMS_P2;Temp;Humidity;BMP_temperature;BMP_pressure;BME280_temperature;BME280_humidity;BME280_pressure;Samples;Min_cycle;Max_cycle;Signal;HPM_P1;HPM_P2
2023/07/28 00:00:26;;;;;;;3.45;2.40;;;;;;;17.26;100.00;99441.84;7664817;23;20028;-94
2023/07/28 00:03:29;;;;;;;3.08;2.50;;;;;;;17.21;100.00;99444.25;7665787;23;20036;-93
2023/07/28 00:06:31;;;;;;;4.43;2.60;;;;;;;17.20;100.00;99446.03;7614721;23;20021;-93
2023/07/28 00:09:37;;;;;;;3.20;2.90;;;;;;;17.18;100.00;99447.25;7639025;23;20438;-93
2023/07/28 00:12:39;;;;;;;3.40;3.10;;;;;;;17.20;100.00;99451.28;7637569;23;20498;-93
2023/07/28 00:15:41;;;;;;;2.95;2.65;;;;;;;17.17;100.00;99443.03;7665251;23;20025;-95
2023/07/28 00:18:45;;;;;;;4.60;3.03;;;;;;;17.15;100.00;99440.59;7615700;23;20458;-95
2023/07/28 00:21:48;;;;;;;3.70;3.17;;;;;;;17.14;100.00;99440.75;7614683;23;20062;-96
2023/07/28 00:24:50;;;;;;;3.47;2.97;;;;;;;17.08;100.00;99434.50;7638460;23;20025;-94
2023/07/28 00:27:55;;;;;;;3.65;3.28;;;;;;;17.07;100.00;99438.13;7664600;23;20425;-93
2023/07/28 00:30:57;;;;;;;3.00;2.80;;;;;;;17.10;100.00;99436.94;7665382;23;20741;-93
2023/07/28 00:34:02;;;;;;;4.18;3.10;;;;;;;17.11;100.00;99441.16;7665021;23;20048;-93
2023/07/28 00:37:04;;;;;;;4.10;3.00;;;;;;;17.14;100.00;99446.00;7638095;23;20025;-93
2023/07/28 00:40:07;;;;;;;4.55;3.28;;;;;;;17.16;100.00;99442.19;7637773;23;20024;-92
2023/07/28 00:43:10;;;;;;;4.90;3.30;;;;;;;17.17;100.00;99448.25;7665130;23;20087;-93
2023/07/28 00:46:13;;;;;;;2.78;2.58;;;;;;;17.17;100.00;99448.25;7638544;23;20029;-94
2023/07/28 00:49:16;;;;;;;4.05;2.83;;;;;;;17.17;100.00;99446.44;7664480;23;20522;-92
2023/07/28 00:52:17;;;;;;;2.70;2.50;;;;;;;17.21;100.00;99455.50;7664279;23;20068;-93
2023/07/28 00:55:20;;;;;;;3.20;2.90;;;;;;;17.19;100.00;99446.22;7664783;23;20036;-94
2023/07/28 00:58:22;;;;;;;2.65;2.45;;;;;;;17.16;100.00;99454.47;7665458;23;20102;-94
2023/07/28 01:01:25;;;;;;;2.80;2.50;;;;;;;17.20;100.00;99442.63;7638161;23;20095;-92
2023/07/28 01:04:27;;;;;;;2.53;2.20;;;;;;;17.19;100.00;99449.69;7664380;23;20051;-92
2023/07/28 01:07:59;;;;;;;2.50;2.22;;;;;;;17.23;100.00;99452.69;7664444;23;20017;-93
2023/07/28 01:11:04;;;;;;;2.00;1.88;;;;;;;17.14;100.00;99444.22;7638941;23;20485;-92
2023/07/28 01:14:06;;;;;;;4.05;2.20;;;;;;;17.17;100.00;99449.06;7664496;23;20025;-91
2023/07/28 01:17:09;;;;;;;2.25;2.00;;;;;;;17.23;100.00;99442.25;7664395;23;20021;-93
2023/07/28 01:20:11;;;;;;;3.13;2.05;;;;;;;17.24;100.00;99438.63;7638032;23;20021;-93
2023/07/28 01:23:13;;;;;;;3.58;1.90;;;;;;;17.27;100.00;99437.47;7637918;23;20017;-92
2023/07/28 01:26:16;;;;;;;3.35;1.50;;;;;;;17.27;100.00;99433.03;7637724;23;20143;-94
2023/07/28 01:29:19;;;;;;;2.08;1.65;;;;;;;17.27;100.00;99440.88;7664092;23;20216;-93
2023/07/28 01:32:22;;;;;;;1.70;1.60;;;;;;;17.30;100.00;99440.47;7637368;23;20024;-91
2023/07/28 01:35:25;;;;;;;2.53;1.70;;;;;;;17.27;100.00;99430.41;7663884;23;20031;-94
2023/07/28 01:38:28;;;;;;;1.90;1.70;;;;;;;17.22;100.00;99423.13;7664476;23;20352;-91
2023/07/28 01:41:30;;;;;;;3.05;2.00;;;;;;;17.21;100.00;99421.50;7614214;23;20400;-92
2023/07/28 01:44:32;;;;;;;1.95;1.83;;;;;;;17.18;100.00;99428.94;7637501;23;20108;-92
2023/07/28 01:47:34;;;;;;;2.10;1.80;;;;;;;17.21;100.00;99428.53;7663901;23;20013;-91
2023/07/28 01:50:37;;;;;;;4.38;2.05;;;;;;;17.25;100.00;99437.63;7637540;23;20621;-93
2023/07/28 01:53:39;;;;;;;2.92;2.10;;;;;;;17.28;100.00;99445.09;7637837;23;20087;-92
2023/07/28 01:56:41;;;;;;;2.45;1.98;;;;;;;17.24;100.00;99443.84;7665270;23;20044;-92
2023/07/28 01:59:43;;;;;;;2.70;2.15;;;;;;;17.27;100.00;99433.03;7616254;23;20024;-93
2023/07/28 02:02:47;;;;;;;3.15;1.88;;;;;;;17.27;100.00;99443.50;7665534;23;20386;-91
2023/07/28 02:05:49;;;;;;;2.42;2.00;;;;;;;17.28;100.00;99439.06;7639925;23;20404;-92
2023/07/28 02:08:52;;;;;;;2.50;2.05;;;;;;;17.29;100.00;99436.25;7639843;23;20028;-91
2023/07/28 02:11:56;;;;;;;2.28;1.70;;;;;;;17.29;100.00;99445.91;7666336;23;20471;-92
2023/07/28 02:15:02;;;;;;;2.45;1.63;;;;;;;17.26;100.00;99441.84;7640339;23;20032;-92
2023/07/28 02:18:04;;;;;;;2.17;1.52;;;;;;;17.23;100.00;99435.19;7666614;23;20096;-94
2023/07/28 02:21:08;;;;;;;1.90;1.67;;;;;;;17.20;100.00;99435.59;7639682;23;20025;-92
2023/07/28 02:24:10;;;;;;;3.00;1.83;;;;;;;17.23;100.00;99429.16;7665769;23;20021;-91
2023/07/28 02:27:12;;;;;;;2.38;2.03;;;;;;;17.22;100.00;99427.56;7640712;23;20206;-91
2023/07/28 02:30:14;;;;;;;2.30;1.85;;;;;;;17.16;100.00;99434.34;7667018;23;20028;-91
2023/07/28 02:33:16;;;;;;;2.13;1.85;;;;;;;17.13;100.00;99441.78;7667339;23;20623;-92
2023/07/28 02:36:18;;;;;;;5.15;2.97;;;;;;;17.08;100.00;99444.94;7666157;23;20149;-93
2023/07/28 02:39:21;;;;;;;2.90;1.70;;;;;;;16.96;100.00;99449.88;7666024;23;20112;-92
2023/07/28 02:42:25;;;;;;;2.58;2.10;;;;;;;16.90;100.00;99455.09;7663467;23;20156;-93
2023/07/28 02:45:27;;;;;;;1.73;1.63;;;;;;;16.89;100.00;99458.66;7637899;23;20031;-93
2023/07/28 02:48:29;;;;;;;2.35;1.80;;;;;;;16.90;100.00;99445.44;7638627;23;20017;-93
2023/07/28 02:51:31;;;;;;;3.08;1.67;;;;;;;16.89;100.00;99461.28;7664569;23;20451;-94
2023/07/28 02:54:33;;;;;;;2.20;2.00;;;;;;;16.93;100.00;99467.75;7614883;23;20025;-93
2023/07/28 02:57:35;;;;;;;1.83;1.70;;;;;;;16.97;100.00;99469.81;7639651;23;20431;-92
2023/07/28 03:00:41;;;;;;;2.10;1.95;;;;;;;17.01;100.00;99473.66;7666704;23;20049;-95
2023/07/28 03:03:43;;;;;;;2.03;1.85;;;;;;;17.02;100.00;99466.66;7615287;23;20031;-92
2023/07/28 03:06:46;;;;;;;2.33;2.20;;;;;;;16.99;100.00;99462.59;7639902;23;20456;-93
2023/07/28 03:09:48;;;;;;;3.28;2.58;;;;;;;16.97;100.00;99474.25;7638375;23;20530;-94
2023/07/28 03:12:50;;;;;;;2.75;2.55;;;;;;;16.96;100.00;99480.44;7664509;23;20027;-93
2023/07/28 03:15:52;;;;;;;2.75;1.70;;;;;;;17.04;100.00;99475.09;7665989;23;20021;-94
2023/07/28 03:18:57;;;;;;;1.90;1.75;;;;;;;17.06;100.00;99467.88;7639968;23;20032;-95
2023/07/28 03:21:59;;;;;;;2.13;2.00;;;;;;;17.07;100.00;99472.09;7638412;23;20032;-92
2023/07/28 03:25:01;;;;;;;3.33;1.98;;;;;;;17.11;100.00;99470.72;7664975;23;20021;-94
2023/07/28 03:28:02;;;;;;;6.15;2.65;;;;;;;17.09;100.00;99472.72;7637836;23;20028;-93
2023/07/28 03:31:05;;;;;;;1.85;1.75;;;;;;;17.04;100.00;99476.88;7637954;23;20025;-94
2023/07/28 03:34:07;;;;;;;2.40;2.10;;;;;;;17.04;100.00;99474.28;7638685;23;20028;-93
2023/07/28 03:37:09;;;;;;;2.83;1.98;;;;;;;17.05;100.00;99479.34;7638640;23;20104;-94
2023/07/28 03:40:12;;;;;;;4.15;2.22;;;;;;;16.92;100.00;99482.66;7638901;23;20025;-96
2023/07/28 03:43:26;;;;;;;3.92;2.10;;;;;;;16.85;100.00;99481.78;7638668;23;20159;-95
2023/07/28 03:46:29;;;;;;;3.30;1.80;;;;;;;16.81;100.00;99490.19;7614760;23;20021;-95
2023/07/28 03:49:33;;;;;;;2.10;2.00;;;;;;;16.75;100.00;99495.13;7637209;23;20506;-95
2023/07/28 03:52:35;;;;;;;3.00;2.45;;;;;;;16.77;100.00;99498.38;7638694;23;20048;-96
2023/07/28 03:55:37;;;;;;;3.38;2.10;;;;;;;16.72;100.00;99508.56;7613495;23;20032;-94
2023/07/28 03:58:39;;;;;;;3.75;2.10;;;;;;;16.65;100.00;99501.66;7665253;23;20021;-93
2023/07/28 04:01:41;;;;;;;2.38;2.10;;;;;;;16.65;100.00;99505.09;7666083;23;20028;-94
2023/07/28 04:04:43;;;;;;;3.60;2.10;;;;;;;16.65;100.00;99517.34;7614669;23;20021;-91
2023/07/28 04:07:45;;;;;;;2.15;1.95;;;;;;;16.70;100.00;99510.56;7639196;23;20017;-93
2023/07/28 04:10:47;;;;;;;3.28;1.80;;;;;;;16.75;100.00;99510.00;7666122;23;20110;-94
2023/07/28 04:13:49;;;;;;;1.70;1.52;;;;;;;16.78;100.00;99509.66;7666048;23;20550;-94
2023/07/28 04:16:51;;;;;;;1.80;1.70;;;;;;;16.89;100.00;99519.59;7638804;23;20115;-93
2023/07/28 04:19:52;;;;;;;1.70;1.60;;;;;;;16.89;100.00;99509.13;7665439;23;20124;-90
2023/07/28 04:22:55;;;;;;;1.45;1.35;;;;;;;16.79;100.00;99514.72;7665108;23;20435;-90
2023/07/28 04:25:56;;;;;;;1.65;1.52;;;;;;;16.66;100.00;99518.94;7638864;23;20025;-91
2023/07/28 04:28:59;;;;;;;1.52;1.42;;;;;;;16.60;100.00;99520.50;7638316;23;20029;-92
2023/07/28 04:32:01;;;;;;;3.05;1.30;;;;;;;16.57;100.00;99526.06;7639081;23;20029;-95
2023/07/28 04:35:07;;;;;;;1.58;1.45;;;;;;;16.61;100.00;99537.00;7637936;23;20144;-93
2023/07/28 04:38:32;;;;;;;5.05;2.13;;;;;;;16.65;100.00;99535.63;7623150;23;20037;-94
2023/07/28 04:41:35;;;;;;;3.05;1.60;;;;;;;16.60;100.00;99535.38;7638632;23;20017;-94
2023/07/28 04:44:40;;;;;;;2.88;1.40;;;;;;;16.66;100.00;99537.25;7665220;23;20020;-96
2023/07/28 04:47:44;;;;;;;1.40;1.20;;;;;;;16.69;100.00;99542.91;7637698;23;20104;-92
2023/07/28 04:50:49;;;;;;;2.60;1.42;;;;;;;16.62;100.00;99533.38;7636510;23;20094;-92
2023/07/28 04:54:09;;;;;;;;;;;;;;;16.64;100.00;99540.03;7664895;23;20025;-94
2023/07/28 04:57:12;;;;;;;1.40;1.30;;;;;;;16.72;100.00;99544.31;7637938;23;19985;-91
2023/07/28 05:00:17;;;;;;;3.53;1.10;;;;;;;16.70;100.00;99549.75;7637556;23;20021;-92
2023/07/28 05:03:19;;;;;;;3.03;1.40;;;;;;;16.75;100.00;99557.03;7637959;23;20337;-91
2023/07/28 05:06:28;;;;;;;2.00;1.40;;;;;;;16.84;100.00;99553.34;7637872;23;20099;-93
2023/07/28 05:09:31;;;;;;;1.60;1.40;;;;;;;16.95;100.00;99559.88;7638316;23;20028;-94
2023/07/28 05:12:33;;;;;;;1.55;1.45;;;;;;;17.01;100.00;99554.72;7637846;23;20024;-92
2023/07/28 05:15:35;;;;;;;2.63;1.60;;;;;;;17.10;100.00;99549.38;7664125;23;20071;-93
2023/07/28 05:18:42;;;;;;;2.15;1.67;;;;;;;17.17;100.00;99550.25;7638288;23;20020;-93
2023/07/28 05:22:16;;;;;;;2.30;1.73;;;;;;;17.25;100.00;99551.91;7493272;23;20473;-94
2023/07/28 05:25:22;;;;;;;3.70;2.25;;;;;;;17.26;100.00;99543.84;7488789;23;20023;-94
2023/07/28 05:28:24;;;;;;;3.45;2.30;;;;;;;17.32;100.00;99544.94;7488231;23;20033;-94
2023/07/28 05:31:29;;;;;;;3.80;2.97;;;;;;;17.39;100.00;99541.38;7489894;23;20046;-95
2023/07/28 05:34:32;;;;;;;3.38;2.80;;;;;;;17.44;100.00;99557.31;7513091;23;20022;-94
2023/07/28 05:37:34;;;;;;;3.75;2.63;;;;;;;17.46;100.00;99556.28;7488668;23;20022;-95
2023/07/28 05:40:37;;;;;;;4.72;3.00;;;;;;;17.48;100.00;99556.91;7488746;23;20043;-95
2023/07/28 05:43:39;;;;;;;4.28;2.38;;;;;;;17.46;100.00;99561.53;7488711;23;20824;-95
2023/07/28 05:46:40;;;;;;;3.45;2.42;;;;;;;17.44;100.00;99564.34;7510110;23;20431;-93
2023/07/28 05:49:43;;;;;;;3.63;2.28;;;;;;;17.45;100.00;99571.19;7491110;23;20027;-96
2023/07/28 05:52:44;;;;;;;2.78;2.40;;;;;;;17.53;100.00;99572.84;7514687;23;20023;-94
2023/07/28 05:55:48;;;;;;;3.00;2.40;;;;;;;17.64;100.00;99573.16;7514478;23;20027;-95
2023/07/28 05:58:52;;;;;;;5.45;2.90;;;;;;;17.77;100.00;99569.81;7601464;23;20024;-95
2023/07/28 06:01:54;;;;;;;2.90;2.50;;;;;;;17.73;100.00;99568.56;7613831;23;20028;-96
2023/07/28 06:04:56;;;;;;;6.10;3.20;;;;;;;17.71;100.00;99578.41;7637883;23;20036;-93
2023/07/28 06:07:58;;;;;;;2.80;2.42;;;;;;;17.76;100.00;99572.59;7639144;23;20020;-96
2023/07/28 06:11:00;;;;;;;3.22;2.92;;;;;;;17.69;100.00;99580.44;7666012;23;20021;-94
2023/07/28 06:14:02;;;;;;;2.47;2.15;;;;;;;17.63;100.00;99578.56;7615683;23;20766;-95
2023/07/28 06:17:07;;;;;;;3.92;2.42;;;;;;;17.58;100.00;99591.41;7667200;23;20021;-93
2023/07/28 06:20:10;;;;;;;3.20;2.45;;;;;;;17.65;100.00;99597.50;7639894;23;20067;-94
2023/07/28 06:23:11;;;;;;;2.72;2.53;;;;;;;17.79;100.00;99593.19;7640874;23;20025;-94
2023/07/28 06:26:13;;;;;;;4.10;2.33;;;;;;;17.80;100.00;99597.44;7639870;23;20028;-91
2023/07/28 06:29:16;;;;;;;3.70;2.60;;;;;;;17.57;100.00;99601.06;7615810;23;20052;-94
2023/07/28 06:32:20;;;;;;;2.92;2.17;;;;;;;17.49;100.00;99606.44;7640064;23;20522;-91
2023/07/28 06:35:22;;;;;;;3.58;2.40;;;;;;;17.46;100.00;99616.47;7638840;23;20025;-95
2023/07/28 06:38:25;;;;;;;2.88;2.38;;;;;;;17.42;100.00;99614.22;7665505;23;20021;-92
2023/07/28 06:41:29;;;;;;;3.78;2.50;;;;;;;17.38;100.00;99620.84;7665770;23;20121;-92
2023/07/28 06:44:35;;;;;;;3.72;2.40;;;;;;;17.34;100.00;99622.22;7640918;23;20096;-93
2023/07/28 06:47:37;;;;;;;4.50;3.67;;;;;;;17.39;100.00;99630.31;7641554;23;20028;-93
2023/07/28 06:50:40;;;;;;;2.65;2.45;;;;;;;17.47;100.00;99633.81;7616951;23;20021;-94
2023/07/28 06:53:42;;;;;;;2.80;2.40;;;;;;;17.51;100.00;99633.22;7640775;23;20036;-94
2023/07/28 06:56:44;;;;;;;3.13;2.33;;;;;;;17.52;100.00;99634.06;7668261;23;20020;-94
2023/07/28 06:59:48;;;;;;;3.13;2.83;;;;;;;17.46;100.00;99642.63;7667554;23;20151;-96
2023/07/28 07:02:50;;;;;;;3.03;2.78;;;;;;;17.46;100.00;99643.44;7639675;23;20028;-96
2023/07/28 07:05:52;;;;;;;4.38;2.67;;;;;;;17.46;100.00;99653.09;7640942;23;20021;-95
2023/07/28 07:08:55;;;;;;;3.88;3.00;;;;;;;17.52;100.00;99652.38;7641386;23;20044;-95
2023/07/28 07:11:59;;;;;;;4.05;3.65;;;;;;;17.57;100.00;99655.22;7642109;23;20349;-95
2023/07/28 07:15:02;;;;;;;4.40;3.70;;;;;;;17.58;100.00;99660.25;7640639;23;20017;-92
2023/07/28 07:18:07;;;;;;;5.18;3.83;;;;;;;17.63;100.00;99650.03;7668716;23;20427;-94
2023/07/28 07:21:11;;;;;;;4.65;4.03;;;;;;;17.86;100.00;99643.78;7667355;23;20463;-95
2023/07/28 07:24:15;;;;;;;4.13;3.83;;;;;;;18.17;100.00;99655.69;7666466;23;20028;-93
2023/07/28 07:27:18;;;;;;;4.78;4.13;;;;;;;18.50;100.00;99640.16;7642216;23;20317;-95
2023/07/28 07:30:21;;;;;;;4.30;3.90;;;;;;;18.78;100.00;99642.75;7640658;23;20119;-94
2023/07/28 07:33:24;;;;;;;4.13;3.72;;;;;;;19.03;100.00;99635.16;7668026;23;20017;-94
2023/07/28 07:36:29;;;;;;;6.45;4.28;;;;;;;19.11;100.00;99631.53;7640397;23;20503;-94
2023/07/28 07:39:33;;;;;;;4.00;3.63;;;;;;;19.09;100.00;99630.91;7640424;23;20397;-94
2023/07/28 07:42:46;;;;;;;6.32;4.05;;;;;;;19.11;100.00;99629.69;7667484;23;20082;-95
2023/07/28 07:45:51;;;;;;;3.72;3.30;;;;;;;19.32;100.00;99633.97;7667676;23;20016;-92
2023/07/28 07:48:53;;;;;;;3.42;3.13;;;;;;;19.53;100.00;99627.75;7667406;23;20021;-96
2023/07/28 07:51:55;;;;;;;3.50;3.15;;;;;;;19.69;100.00;99631.78;7666870;23;20475;-95
2023/07/28 07:54:58;;;;;;;3.85;3.47;;;;;;;19.71;100.00;99623.72;7667240;23;20443;-96
2023/07/28 07:58:00;;;;;;;3.83;3.33;;;;;;;19.73;100.00;99635.63;7674584;23;20498;-96
2023/07/28 08:01:05;;;;;;;3.72;3.42;;;;;;;19.74;100.00;99634.63;7644017;23;20108;-95
2023/07/28 08:04:18;;;;;;;3.92;3.20;;;;;;;19.78;100.00;99635.03;7683763;23;20526;-96
2023/07/28 08:07:47;;;;;;;4.70;2.90;;;;;;;19.91;100.00;99648.16;7715897;22;20008;-95
2023/07/28 08:10:52;;;;;;;3.00;2.63;;;;;;;20.10;100.00;99636.00;7707501;23;20027;-95
2023/07/28 08:13:59;;;;;;;3.50;3.20;;;;;;;20.50;100.00;99630.63;7720591;23;20016;-96
2023/07/28 08:17:20;;;;;;;3.05;2.55;;;;;;;20.84;100.00;99628.69;7743327;23;20020;-96
2023/07/28 08:20:30;;;;;;;2.70;2.50;;;;;;;20.94;100.00;99633.50;7745415;23;20020;-96
2023/07/28 08:23:42;;;;;;;3.58;2.50;;;;;;;21.03;100.00;99642.75;7769006;23;20023;-96
2023/07/28 08:26:49;;;;;;;2.63;2.42;;;;;;;20.98;100.00;99637.31;7719886;23;20023;-96
2023/07/28 08:30:01;;;;;;;4.10;2.00;;;;;;;21.00;100.00;99635.28;7742315;23;20438;-96
2023/07/28 08:33:27;;;;;;;2.78;2.50;;;;;;;20.90;100.00;99643.63;7721688;23;20016;-96
2023/07/28 08:36:43;;;;;;;2.22;2.03;;;;;;;21.06;100.00;99644.97;7744514;23;20024;-96
2023/07/28 08:40:05;;;;;;;3.33;2.08;;;;;;;21.20;100.00;99638.59;7699293;23;20028;-95
2023/07/28 08:43:09;;;;;;;2.72;2.40;;;;;;;21.14;100.00;99636.84;7650990;23;20024;-96
2023/07/28 08:46:13;;;;;;;3.97;2.40;;;;;;;21.13;100.00;99651.00;7675277;23;20017;-96
2023/07/28 08:49:16;;;;;;;2.08;1.98;;;;;;;21.18;100.00;99645.91;7645518;23;20028;-95
2023/07/28 08:52:18;;;;;;;2.17;2.03;;;;;;;21.29;100.00;99654.94;7653566;23;20036;-95
2023/07/28 08:55:21;;;;;;;3.67;2.13;;;;;;;21.35;100.00;99650.66;7676978;23;20017;-96
2023/07/28 08:58:26;;;;;;;2.10;1.98;;;;;;;21.07;100.00;99654.47;7675984;23;20549;-96
2023/07/28 09:01:30;;;;;;;2.20;2.10;;;;;;;20.87;100.00;99654.59;7653849;23;20051;-96
2023/07/28 09:04:32;;;;;;;2.17;1.98;;;;;;;20.69;100.00;99657.88;7645652;23;20031;-93
2023/07/28 09:07:37;;;;;;;2.97;2.00;;;;;;;20.79;100.00;99655.59;7673887;23;20028;-96
2023/07/28 09:10:44;;;;;;;3.88;2.20;;;;;;;20.87;100.00;99659.84;7652561;23;20477;-96
2023/07/28 09:13:49;;;;;;;3.78;2.00;;;;;;;21.14;100.00;99655.25;7644785;23;20031;-96
2023/07/28 09:16:52;;;;;;;4.35;2.03;;;;;;;21.50;100.00;99659.88;7671366;23;20024;-96
2023/07/28 09:19:59;;;;;;;3.80;2.28;;;;;;;21.64;100.00;99673.78;7677002;23;20360;-96
2023/07/28 09:23:07;;;;;;;2.58;2.05;;;;;;;21.66;100.00;99666.47;7674393;23;20092;-96
2023/07/28 09:26:10;;;;;;;3.75;2.22;;;;;;;21.90;100.00;99669.28;7683243;23;20104;-94
2023/07/28 09:29:15;;;;;;;2.45;2.10;;;;;;;22.03;100.00;99668.38;7674225;23;20081;-96
2023/07/28 09:32:28;;;;;;;2.33;1.88;;;;;;;22.09;100.00;99664.88;7676733;23;20016;-96
2023/07/28 09:35:31;;;;;;;3.20;1.98;;;;;;;22.18;100.00;99671.47;7651820;23;20100;-95
2023/07/28 09:38:42;;;;;;;2.35;1.63;;;;;;;22.38;100.00;99670.47;7678816;23;20043;-96
2023/07/28 09:41:46;;;;;;;1.90;1.80;;;;;;;22.50;100.00;99671.34;7685115;23;20017;-96
2023/07/28 09:44:49;;;;;;;2.28;1.90;;;;;;;22.69;100.00;99672.16;7674058;23;20021;-96
2023/07/28 09:47:58;;;;;;;2.00;1.90;;;;;;;23.05;100.00;99675.78;7681095;23;20044;-96
2023/07/28 09:51:19;;;;;;;3.08;1.80;;;;;;;22.93;100.00;99678.34;7678025;23;20183;-96
2023/07/28 09:54:31;;;;;;;2.90;2.10;;;;;;;22.61;100.00;99675.91;7678978;23;20027;-96
2023/07/28 09:57:39;;;;;;;3.00;2.03;;;;;;;22.60;100.00;99673.47;7679190;23;20032;-96
2023/07/28 10:00:42;;;;;;;1.80;1.70;;;;;;;22.65;100.00;99692.88;7650558;23;20072;-94
2023/07/28 10:03:45;;;;;;;1.80;1.70;;;;;;;22.85;100.00;99679.44;7654969;23;20056;-96
2023/07/28 10:06:57;;;;;;;2.50;1.85;;;;;;;23.28;100.00;99678.53;7707147;22;20111;-96
2023/07/28 10:10:27;;;;;;;2.20;1.70;;;;;;;23.51;100.00;99669.84;7808613;22;20385;-96
2023/07/28 10:17:17;;;;;;;2.30;2.10;;;;;;;23.40;100.00;99681.16;7746879;22;20429;-96
2023/07/28 10:20:38;;;;;;;2.05;1.83;;;;;;;23.58;100.00;99685.59;7810484;22;20015;-96
2023/07/28 10:23:41;;;;;;;2.00;1.90;;;;;;;23.43;100.00;99684.19;7787132;22;20019;-96
2023/07/28 10:26:44;;;;;;;2.50;1.80;;;;;;;23.44;100.00;99688.41;7770828;22;20800;-96
2023/07/28 10:30:12;;;;;;;1.88;1.77;;;;;;;23.64;100.00;99696.03;7803846;22;20026;-96
2023/07/28 10:33:36;;;;;;;2.00;1.83;;;;;;;23.71;100.00;99695.16;7780891;22;20039;-96
2023/07/28 10:36:45;;;;;;;1.80;1.70;;;;;;;23.39;100.00;99703.34;7802649;22;20018;-96
2023/07/28 10:39:48;;;;;;;1.70;1.60;;;;;;;22.98;100.00;99692.53;7814038;22;20075;-95
2023/07/28 10:42:52;;;;;;;1.95;1.75;;;;;;;22.67;100.00;99704.03;7803239;22;20011;-96
2023/07/28 10:45:56;;;;;;;2.35;1.85;;;;;;;22.72;100.00;99698.09;7769044;22;20030;-96
2023/07/28 10:49:08;;;;;;;8.55;2.08;;;;;;;22.87;100.00;99710.91;7782849;22;20397;-96
2023/07/28 10:52:12;;;;;;;1.70;1.60;;;;;;;23.02;100.00;99700.78;7781020;22;20073;-96
2023/07/28 10:55:20;;;;;;;2.47;1.50;;;;;;;23.47;100.00;99710.13;7780920;22;20428;-96
2023/07/28 10:58:23;;;;;;;2.88;1.65;;;;;;;23.74;100.00;99706.09;7779512;22;20035;-96
2023/07/28 11:01:41;;;;;;;2.33;1.65;;;;;;;24.09;100.00;99702.66;7807048;22;20346;-96
2023/07/28 11:04:50;;;;;;;1.80;1.70;;;;;;;24.08;100.00;99701.88;7785534;22;20043;-96
2023/07/28 11:07:55;;;;;;;1.80;1.70;;;;;;;23.90;100.00;99706.44;7802459;22;20650;-96
2023/07/28 11:10:57;;;;;;;2.22;1.73;;;;;;;23.91;100.00;99708.88;7807182;22;20026;-96
2023/07/28 11:13:59;;;;;;;1.73;1.60;;;;;;;24.34;100.00;99710.34;7731676;22;20016;-96
2023/07/28 11:17:07;;;;;;;1.85;1.60;;;;;;;24.56;100.00;99704.50;7706027;23;20023;-96
2023/07/28 11:20:32;;;;;;;2.38;1.80;;;;;;;24.43;100.00;99708.97;7710136;22;20019;-96
2023/07/28 11:24:14;;;;;;;2.03;1.90;;;;;;;24.19;100.00;99702.88;7729643;23;20024;-96
2023/07/28 11:27:53;;;;;;;2.20;1.70;;;;;;;24.02;100.00;99705.44;7756942;23;20311;-96
2023/07/28 11:31:27;;;;;;;3.15;1.70;;;;;;;23.55;100.00;99707.16;7663413;23;20024;-96
2023/07/28 11:34:36;;;;;;;2.45;2.20;;;;;;;23.68;100.00;99700.91;7711681;23;20024;-96
2023/07/28 11:37:54;;;;;;;2.20;2.00;;;;;;;23.76;100.00;99714.59;7752646;23;20024;-96
2023/07/28 11:41:06;;;;;;;2.25;2.05;;;;;;;23.62;100.00;99705.22;7752013;23;20344;-96
2023/07/28 11:44:19;;;;;;;2.30;1.95;;;;;;;23.67;100.00;99705.34;7751602;23;20012;-96
2023/07/28 11:47:27;;;;;;;2.13;1.92;;;;;;;24.10;100.00;99704.28;7739410;23;20027;-96
2023/07/28 11:51:03;;;;;;;2.17;1.90;;;;;;;24.58;100.00;99710.34;7713688;23;20387;-96
2023/07/28 11:54:10;;;;;;;2.05;1.95;;;;;;;24.88;100.00;99720.75;7767550;23;20020;-96
2023/07/28 11:57:13;;;;;;;2.28;1.95;;;;;;;25.10;100.00;99703.16;7773791;23;20438;-96
2023/07/28 12:00:28;;;;;;;2.17;1.98;;;;;;;25.38;100.00;99700.75;7771655;23;20023;-96
2023/07/28 12:03:35;;;;;;;2.13;2.03;;;;;;;24.92;100.00;99708.66;7737194;23;20042;-96
2023/07/28 12:07:13;;;;;;;2.55;1.90;;;;;;;24.64;100.00;99718.16;7739096;23;20023;-96
2023/07/28 12:10:17;;;;;;;2.30;2.10;;;;;;;24.21;100.00;99719.34;7766077;23;20023;-96
2023/07/28 12:13:51;;;;;;;1.95;1.70;;;;;;;24.03;100.00;99716.81;7773520;23;20043;-96
2023/07/28 12:17:01;;;;;;;1.95;1.77;;;;;;;24.07;100.00;99718.78;7770968;23;20016;-96
2023/07/28 12:20:14;;;;;;;2.70;1.95;;;;;;;24.49;100.00;99729.22;7768096;23;20015;-96
2023/07/28 12:23:22;;;;;;;3.95;2.15;;;;;;;25.13;100.00;99734.47;7740129;23;20663;-96
2023/07/28 12:26:27;;;;;;;1.85;1.75;;;;;;;25.37;100.00;99723.03;7751993;23;20016;-96
2023/07/28 12:29:29;;;;;;;2.20;1.98;;;;;;;25.78;100.00;99730.59;7757791;23;20156;-96
2023/07/28 12:32:32;;;;;;;2.20;2.00;;;;;;;25.89;100.00;99728.16;7737876;23;20075;-96
2023/07/28 12:35:38;;;;;;;2.75;2.08;;;;;;;26.15;100.00;99735.41;7768561;23;20000;-96
2023/07/28 12:38:44;;;;;;;2.97;2.10;;;;;;;25.87;100.00;99736.34;7748157;22;20003;-96
2023/07/28 12:41:45;;;;;;;2.55;2.00;;;;;;;25.79;100.00;99742.00;7780533;23;20020;-96
2023/07/28 12:45:11;;;;;;;1.92;1.70;;;;;;;25.60;100.00;99743.28;7746486;23;20099;-96
2023/07/28 12:48:16;;;;;;;2.38;2.17;;;;;;;25.75;100.00;99749.63;7769046;23;20025;-96
2023/07/28 12:51:21;;;;;;;2.75;2.33;;;;;;;25.74;100.00;99744.59;7721602;23;20028;-96
2023/07/28 12:54:26;;;;;;;3.55;2.50;;;;;;;25.77;100.00;99752.84;7760317;22;20300;-96
2023/07/28 12:57:28;;;;;;;2.13;1.92;;;;;;;25.80;100.00;99756.88;7766120;23;20016;-96
2023/07/28 13:00:30;;;;;;;6.53;2.08;;;;;;;25.55;100.00;99751.94;7757294;23;20012;-96
2023/07/28 13:03:35;;;;;;;2.45;2.00;;;;;;;25.43;100.00;99759.16;7769007;23;20442;-96
2023/07/28 13:06:37;;;;;;;2.25;2.00;;;;;;;25.38;100.00;99767.81;7747897;23;20023;-96
2023/07/28 13:09:39;;;;;;;2.35;2.20;;;;;;;25.07;100.00;99767.22;7764019;23;20016;-96
2023/07/28 13:12:43;;;;;;;2.58;2.20;;;;;;;24.92;100.00;99778.31;7762177;23;20129;-96
2023/07/28 13:15:50;;;;;;;2.80;2.22;;;;;;;25.24;100.00;99771.78;7748165;23;20039;-96
2023/07/28 13:18:53;;;;;;;2.88;2.40;;;;;;;25.13;100.00;99770.75;7771817;22;19993;-96
2023/07/28 13:21:56;;;;;;;2.50;2.30;;;;;;;25.11;100.00;99776.28;7749593;23;20020;-97
2023/07/28 13:25:19;;;;;;;3.03;2.22;;;;;;;25.14;100.00;99770.53;7776949;22;20023;-96
2023/07/28 13:28:23;;;;;;;2.53;2.33;;;;;;;25.15;100.00;99763.38;7776700;23;20012;-96
2023/07/28 13:31:29;;;;;;;2.90;2.28;;;;;;;25.06;100.00;99762.13;7777317;22;20436;-96
2023/07/28 13:34:34;;;;;;;4.50;2.47;;;;;;;25.19;100.00;99763.72;7764018;23;20480;-96
2023/07/28 13:37:36;;;;;;;2.50;2.30;;;;;;;25.62;100.00;99757.91;7770370;22;20020;-96
2023/07/28 13:40:43;;;;;;;4.78;2.25;;;;;;;26.10;100.00;99755.78;7771687;23;20003;-96
2023/07/28 13:43:52;;;;;;;2.55;2.35;;;;;;;26.57;100.00;99752.75;7771314;23;20071;-96
2023/07/28 13:46:57;;;;;;;2.72;2.53;;;;;;;27.02;100.00;99749.84;7745152;23;20020;-96
2023/07/28 13:50:12;;;;;;;3.13;2.13;;;;;;;27.05;100.00;99749.31;7759109;23;20008;-96
2023/07/28 13:53:22;;;;;;;2.58;2.38;;;;;;;26.62;100.00;99747.50;7798987;22;20026;-96
2023/07/28 13:56:34;;;;;;;2.00;1.90;;;;;;;26.91;100.00;99753.44;7809061;22;20076;-96
2023/07/28 13:59:36;;;;;;;2.28;1.98;;;;;;;27.01;100.00;99747.44;7801100;22;20019;-96
2023/07/28 14:02:40;;;;;;;2.42;2.22;;;;;;;27.02;100.00;99757.00;7815700;22;20012;-96
2023/07/28 14:09:06;;;;;;;2.40;2.20;;;;;;;27.59;100.00;99764.53;7715222;23;20017;-96
2023/07/28 14:12:08;;;;;;;2.60;2.40;;;;;;;28.04;100.00;99751.88;7734774;23;20055;-96
2023/07/28 14:15:12;;;;;;;2.80;2.10;;;;;;;27.65;100.00;99757.38;7702926;23;20020;-96
2023/07/28 14:18:16;;;;;;;2.40;2.20;;;;;;;27.44;100.00;99749.22;7726167;23;20020;-96
2023/07/28 14:21:18;;;;;;;2.53;2.30;;;;;;;27.67;100.00;99744.63;7715006;23;20094;-95
2023/07/28 14:24:21;;;;;;;2.65;1.73;;;;;;;27.93;100.00;99745.69;7712865;23;20820;-96
2023/07/28 14:27:25;;;;;;;2.22;2.05;;;;;;;27.87;100.00;99741.38;7721021;23;20023;-96
2023/07/28 14:30:27;;;;;;;2.20;2.00;;;;;;;28.05;100.00;99738.31;7723364;23;20006;-96